Terminal Aerodrome Forecast
Issued by NWS Springfield, MO

Home | Current Version | Previous Version | Text Only | Print | Product List | Glossary On
Versions: 1 2 3 4 5 6 7 8 9 10 11 12 13 14 15 16 17 18 19 20 21 22 23
000
FTUS43 KSGF 201700
TAFSGF
TAF
KSGF 201720Z 2018/2118 25010KT P6SM SCT025
      TEMPO 2018/2020 BKN025
     FM202000 24008KT P6SM FEW030 SCT050
     FM210100 23005KT P6SM FEW050 SCT100 BKN250 PROB30 2106/2112 4SM
      -TSRA OVC050CB
     FM211200 30008KT P6SM SCT050 OVC150=

USA.gov is the U.S. government's official web portal to all federal, state and local government web resources and services.